createdAt,value
2022-08-05T00:00:18.570Z,982.23
2022-08-05T00:02:51.786Z,979.97
2022-08-05T00:06:03.154Z,931.07
2022-08-05T00:08:34.047Z,939.57
2022-08-05T00:11:00.595Z,959.67
2022-08-05T00:13:38.140Z,990.57
2022-08-05T00:16:12.228Z,964.50
2022-08-05T00:18:42.405Z,992.30
2022-08-05T00:21:14.238Z,966.07
2022-08-05T00:23:45.834Z,936.43
2022-08-05T00:26:22.513Z,976.90
2022-08-05T00:28:51.613Z,944.53
2022-08-05T00:31:54.494Z,990.40
2022-08-05T00:34:55.859Z,971.97
2022-08-05T00:37:11.542Z,991.77
2022-08-05T00:39:57.399Z,957.37
2022-08-05T00:42:34.164Z,962.50
2022-08-05T00:45:02.378Z,993.57
2022-08-05T00:47:57.169Z,951.90
2022-08-05T00:50:20.979Z,986.27
2022-08-05T00:52:49.260Z,948.90
2022-08-05T00:55:17.356Z,957.90
2022-08-05T00:57:58.521Z,951.97
2022-08-05T01:00:27.818Z,947.80
2022-08-05T01:02:58.052Z,999.90
2022-08-05T01:05:28.709Z,959.27
2022-08-05T01:08:40.112Z,999.90
2022-08-05T01:10:51.715Z,945.93
2022-08-05T01:13:27.438Z,962.17
2022-08-05T01:16:26.263Z,953.80
2022-08-05T01:19:01.751Z,999.90
2022-08-05T01:21:58.250Z,975.27
2022-08-05T01:24:52.970Z,965.97
2022-08-05T01:27:50.508Z,942.57
2022-08-05T01:30:33.533Z,982.73
2022-08-05T01:33:04.896Z,982.43
2022-08-05T01:35:51.806Z,956.57
2022-08-05T01:38:30.021Z,952.60
2022-08-05T01:41:01.547Z,951.67
2022-08-05T01:43:33.557Z,980.20
2022-08-05T01:46:07.403Z,995.27
2022-08-05T01:48:49.725Z,999.90
2022-08-05T01:51:19.934Z,964.50
2022-08-05T01:53:57.643Z,961.33
2022-08-05T01:58:11.650Z,999.90
2022-08-05T01:59:22.865Z,983.20
2022-08-05T02:01:55.697Z,946.63
2022-08-05T02:04:28.960Z,986.77
2022-08-05T02:06:58.837Z,973.33
2022-08-05T02:09:28.144Z,997.97
2022-08-05T02:12:10.098Z,954.70
2022-08-05T02:14:46.996Z,945.67
2022-08-05T02:18:14.568Z,970.00
2022-08-05T02:20:15.428Z,965.73
2022-08-05T02:22:55.456Z,980.23
2022-08-05T02:25:27.562Z,988.40
2022-08-05T02:28:04.337Z,992.10
2022-08-05T02:30:54.202Z,970.53
2022-08-05T02:33:24.443Z,965.37
2022-08-05T02:36:06.072Z,991.70
2022-08-05T02:38:38.431Z,939.70
2022-08-05T02:41:17.135Z,967.17
2022-08-05T02:44:06.639Z,982.33
2022-08-05T02:46:53.414Z,999.90
2022-08-05T02:49:35.637Z,978.47
2022-08-05T02:52:07.727Z,956.57
2022-08-05T02:54:37.752Z,966.20
2022-08-05T02:58:10.937Z,978.93
2022-08-05T03:00:00.670Z,976.77
2022-08-05T03:02:35.859Z,999.90
2022-08-05T03:05:05.982Z,955.83
2022-08-05T03:08:00.559Z,976.03
2022-08-05T03:10:25.333Z,998.47
2022-08-05T03:12:53.868Z,941.63
2022-08-05T03:15:23.524Z,974.80
2022-08-05T03:17:55.957Z,994.97
2022-08-05T03:20:24.799Z,967.53
2022-08-05T03:22:57.242Z,994.77
2022-08-05T03:26:03.583Z,965.23
2022-08-05T03:28:14.228Z,973.93
2022-08-05T03:30:42.621Z,996.97
2022-08-05T03:33:12.267Z,983.83
2022-08-05T03:35:41.852Z,968.93
2022-08-05T03:38:14.395Z,999.90
2022-08-05T03:40:45.222Z,977.10
2022-08-05T03:44:09.315Z,984.23
2022-08-05T03:46:04.731Z,973.30
2022-08-05T03:48:35.344Z,999.70
2022-08-05T03:52:37.445Z,999.90
2022-08-05T03:55:51.035Z,974.77
2022-08-05T03:56:52.487Z,931.50
2022-08-05T03:59:24.781Z,997.37
2022-08-05T04:01:58.863Z,980.17
2022-08-05T04:04:30.374Z,999.83
2022-08-05T04:07:00.111Z,981.60
2022-08-05T04:09:29.227Z,979.90
2022-08-05T04:11:57.708Z,964.87
2022-08-05T04:14:30.089Z,970.83
2022-08-05T04:17:00.424Z,996.23
2022-08-05T04:19:31.241Z,992.67
2022-08-05T04:22:09.258Z,999.90
2022-08-05T04:24:44.134Z,979.33
2022-08-05T04:27:14.087Z,991.53
2022-08-05T04:29:43.466Z,999.90
2022-08-05T04:32:11.425Z,978.47
2022-08-05T04:34:43.359Z,999.90
2022-08-05T04:37:11.536Z,999.90
2022-08-05T04:39:40.744Z,996.53
2022-08-05T04:42:09.637Z,999.00
2022-08-05T04:44:37.588Z,999.90
2022-08-05T04:47:09.025Z,999.90
2022-08-05T04:50:02.782Z,999.90
2022-08-05T04:52:28.277Z,956.30
2022-08-05T04:54:57.325Z,999.90
2022-08-05T04:57:29.115Z,999.90
2022-08-05T04:59:59.775Z,998.43
2022-08-05T05:02:37.656Z,990.40
2022-08-05T05:05:25.890Z,977.43
2022-08-05T05:08:00.910Z,983.60
2022-08-05T05:10:30.104Z,994.47
2022-08-05T05:12:58.089Z,999.90
2022-08-05T05:15:56.568Z,998.07
2022-08-05T05:18:28.424Z,971.40
2022-08-05T05:20:59.723Z,999.90
2022-08-05T05:23:39.493Z,985.87
2022-08-05T05:26:17.793Z,954.43
2022-08-05T05:28:45.743Z,983.20
2022-08-05T05:31:13.634Z,976.13
2022-08-05T05:33:59.806Z,986.43
2022-08-05T05:36:29.807Z,999.90
2022-08-05T05:38:59.464Z,965.57
2022-08-05T05:41:40.554Z,985.33
2022-08-05T05:44:35.874Z,962.00
2022-08-05T05:46:58.341Z,981.03
2022-08-05T05:49:32.030Z,998.67
2022-08-05T05:52:05.915Z,999.90
2022-08-05T05:54:50.150Z,985.90
2022-08-05T05:57:19.549Z,945.20
2022-08-05T05:59:47.775Z,974.73
2022-08-05T06:02:17.203Z,989.03
2022-08-05T06:05:03.390Z,976.37
2022-08-05T06:07:41.593Z,987.63
2022-08-05T06:10:12.628Z,982.43
2022-08-05T06:12:42.250Z,999.90
2022-08-05T06:15:23.574Z,963.33
2022-08-05T06:17:53.395Z,996.80
2022-08-05T06:20:22.132Z,962.37
2022-08-05T06:22:50.197Z,953.87
2022-08-05T06:25:59.173Z,989.20
2022-08-05T06:28:11.762Z,991.33
2022-08-05T06:30:48.771Z,976.07
2022-08-05T06:33:19.301Z,970.20
2022-08-05T06:36:07.228Z,994.07
2022-08-05T06:38:36.491Z,959.57
2022-08-05T06:41:07.751Z,919.77
2022-08-05T06:43:57.781Z,927.27
2022-08-05T06:46:29.790Z,925.37
2022-08-05T06:48:59.759Z,969.47
2022-08-05T06:51:30.784Z,960.80
2022-08-05T06:53:59.812Z,987.13
2022-08-05T06:56:29.588Z,969.40
2022-08-05T06:58:57.784Z,986.10
2022-08-05T07:01:27.633Z,948.03
2022-08-05T07:04:02.402Z,980.13
2022-08-05T07:06:31.757Z,972.93
2022-08-05T07:09:03.729Z,976.70
2022-08-05T07:11:36.961Z,934.53
2022-08-05T07:14:29.367Z,986.87
2022-08-05T07:17:58.749Z,947.13
2022-08-05T07:22:37.432Z,932.90
2022-08-05T07:25:53.976Z,974.83
2022-08-05T07:28:01.508Z,964.97
2022-08-05T07:30:33.933Z,967.80
2022-08-05T07:33:05.403Z,968.83
2022-08-05T07:36:02.656Z,930.90
2022-08-05T07:38:33.599Z,934.20
2022-08-05T07:41:35.168Z,920.30
2022-08-05T07:43:56.139Z,944.93
2022-08-05T07:46:25.973Z,973.87
2022-08-05T07:49:03.126Z,979.87
2022-08-05T07:51:48.893Z,913.87
2022-08-05T07:54:30.943Z,951.80
2022-08-05T07:57:17.594Z,951.13
2022-08-05T07:59:49.365Z,922.03
2022-08-05T08:02:18.323Z,923.07
2022-08-05T08:04:48.772Z,950.47
2022-08-05T08:07:22.450Z,930.93
2022-08-05T08:09:54.851Z,940.67
2022-08-05T08:12:35.210Z,972.37
2022-08-05T08:15:15.364Z,940.03
2022-08-05T08:17:49.754Z,956.63
2022-08-05T08:21:00.126Z,932.90
2022-08-05T08:23:11.825Z,980.17
2022-08-05T08:25:59.863Z,955.20
2022-08-05T08:28:36.223Z,955.30
2022-08-05T08:31:14.603Z,956.10
2022-08-05T08:33:45.553Z,955.53
2022-08-05T08:36:48.899Z,943.03
2022-08-05T08:39:02.787Z,932.13
2022-08-05T08:41:50.697Z,936.70
2022-08-05T08:45:20.238Z,883.37
2022-08-05T08:47:47.370Z,910.00
2022-08-05T08:50:06.213Z,879.83
2022-08-05T08:52:52.987Z,925.80
2022-08-05T08:56:01.652Z,941.90
2022-08-05T08:58:12.904Z,897.80
2022-08-05T09:00:41.705Z,887.57
2022-08-05T09:03:11.611Z,910.43
2022-08-05T09:06:09.247Z,899.50
2022-08-05T09:08:30.230Z,922.80
2022-08-05T09:10:58.610Z,917.00
2022-08-05T09:13:31.834Z,946.13
2022-08-05T09:16:16.835Z,902.47
2022-08-05T09:18:46.617Z,894.73
2022-08-05T09:21:20.919Z,890.20
2022-08-05T09:24:08.675Z,949.97
2022-08-05T09:26:38.215Z,864.17
2022-08-05T09:29:11.546Z,847.57
2022-08-05T09:32:51.333Z,862.47
2022-08-05T09:34:53.935Z,915.63
2022-08-05T09:38:12.148Z,870.67
2022-08-05T09:40:32.085Z,866.63
2022-08-05T09:43:01.245Z,888.17
2022-08-05T09:46:06.177Z,847.23
2022-08-05T09:48:30.118Z,879.00
2022-08-05T09:51:01.365Z,845.13
2022-08-05T09:53:53.965Z,884.33
2022-08-05T09:56:26.757Z,895.60
2022-08-05T09:58:58.929Z,836.47
2022-08-05T10:01:31.764Z,843.80
2022-08-05T10:04:04.539Z,891.20
2022-08-05T10:06:41.517Z,884.67
2022-08-05T10:09:27.374Z,833.13
2022-08-05T10:12:30.053Z,871.97
2022-08-05T10:15:13.748Z,822.17
2022-08-05T10:17:54.423Z,842.60
2022-08-05T10:20:26.389Z,854.27
2022-08-05T10:22:57.024Z,854.27
2022-08-05T10:25:26.698Z,838.20
2022-08-05T10:28:13.272Z,842.83
2022-08-05T10:32:47.405Z,851.37
2022-08-05T10:33:35.275Z,854.20
2022-08-05T10:36:05.755Z,842.67
2022-08-05T10:38:37.167Z,829.33
2022-08-05T10:41:13.825Z,864.70
2022-08-05T10:43:51.646Z,826.77
2022-08-05T10:46:23.738Z,860.00
2022-08-05T10:49:00.620Z,831.23
2022-08-05T10:51:48.605Z,854.60
2022-08-05T10:54:56.083Z,866.83
2022-08-05T10:57:32.014Z,863.50
2022-08-05T11:00:19.658Z,829.43
2022-08-05T11:03:24.603Z,850.00
2022-08-05T11:06:05.672Z,844.37
2022-08-05T11:08:37.170Z,811.10
2022-08-05T11:11:52.255Z,842.57
2022-08-05T11:14:57.581Z,844.13
2022-08-05T11:17:59.747Z,837.60
2022-08-05T11:20:39.116Z,823.40
2022-08-05T11:24:05.352Z,766.00
2022-08-05T11:26:28.953Z,794.90
2022-08-05T11:29:13.466Z,789.97
2022-08-05T11:31:58.419Z,804.63
2022-08-05T11:34:39.819Z,781.73
2022-08-05T11:38:36.482Z,777.27
2022-08-05T11:40:03.280Z,807.50
2022-08-05T11:42:37.818Z,785.17
2022-08-05T11:45:23.526Z,813.40
2022-08-05T11:47:59.354Z,809.90
2022-08-05T11:50:27.539Z,794.17
2022-08-05T11:52:58.206Z,811.63
2022-08-05T11:55:32.295Z,796.03
2022-08-05T11:58:09.388Z,752.10
2022-08-05T12:00:44.373Z,788.00
2022-08-05T12:03:28.674Z,769.00
2022-08-05T12:06:06.172Z,797.33
2022-08-05T12:08:49.907Z,773.10
2022-08-05T12:11:22.120Z,808.97
2022-08-05T12:13:59.409Z,737.33
2022-08-05T12:16:38.482Z,766.57
2022-08-05T12:19:08.466Z,780.63
2022-08-05T12:21:39.231Z,762.20
2022-08-05T12:24:09.718Z,739.50
2022-08-05T12:26:39.189Z,788.23
2022-08-05T12:29:09.331Z,771.00
2022-08-05T12:31:46.112Z,798.87
2022-08-05T12:34:21.429Z,742.67
2022-08-05T12:36:53.572Z,751.73
2022-08-05T12:39:22.060Z,750.70
2022-08-05T12:41:58.162Z,750.47
2022-08-05T12:44:33.110Z,753.30
2022-08-05T12:47:03.837Z,769.97
2022-08-05T12:50:04.252Z,755.23
2022-08-05T12:52:39.646Z,791.27
2022-08-05T12:55:22.363Z,734.33
2022-08-05T12:58:50.017Z,743.80
2022-08-05T13:02:00.324Z,777.80
2022-08-05T13:03:42.410Z,755.97
2022-08-05T13:06:20.612Z,725.27
2022-08-05T13:08:51.434Z,767.33
2022-08-05T13:11:25.625Z,748.67
2022-08-05T13:14:35.938Z,755.13
2022-08-05T13:17:10.045Z,738.13
2022-08-05T13:19:51.063Z,736.90
2022-08-05T13:22:28.058Z,740.40
2022-08-05T13:25:05.780Z,716.63
2022-08-05T13:27:37.950Z,729.23
2022-08-05T13:30:33.536Z,720.60
2022-08-05T13:32:57.014Z,757.90
2022-08-05T13:35:43.269Z,773.83
2022-08-05T13:38:28.480Z,747.97
2022-08-05T13:40:59.898Z,767.13
2022-08-05T13:43:43.414Z,738.13
2022-08-05T13:46:14.365Z,746.97
2022-08-05T13:48:57.874Z,730.57
2022-08-05T13:51:36.622Z,726.93
2022-08-05T13:54:12.710Z,739.13
2022-08-05T13:56:51.146Z,741.87
2022-08-05T13:59:21.429Z,724.33
2022-08-05T14:01:59.096Z,736.53
2022-08-05T14:04:51.077Z,704.23
2022-08-05T14:07:25.838Z,680.77
2022-08-05T14:10:13.142Z,712.43
2022-08-05T14:12:42.686Z,699.10
2022-08-05T14:16:04.985Z,721.43
2022-08-05T14:17:59.937Z,712.97
2022-08-05T14:20:29.475Z,719.13
2022-08-05T14:22:58.970Z,725.97
2022-08-05T14:25:28.414Z,693.30
2022-08-05T14:27:58.765Z,687.13
2022-08-05T14:30:27.900Z,694.30
2022-08-05T14:32:56.671Z,758.73
2022-08-05T14:35:37.534Z,734.80
2022-08-05T14:38:31.883Z,714.23
2022-08-05T14:41:06.479Z,720.37
2022-08-05T14:43:59.342Z,726.73
2022-08-05T14:46:28.117Z,716.60
2022-08-05T14:48:59.678Z,682.03
2022-08-05T14:51:32.193Z,688.37
2022-08-05T14:54:27.465Z,702.00
2022-08-05T14:56:50.981Z,725.10
2022-08-05T14:59:21.792Z,723.40
2022-08-05T15:01:50.398Z,705.40
2022-08-05T15:04:20.518Z,721.10
2022-08-05T15:06:49.907Z,718.93
2022-08-05T15:09:51.737Z,718.50
2022-08-05T15:12:09.455Z,715.77
2022-08-05T15:14:42.202Z,742.33
2022-08-05T15:17:45.714Z,697.77
2022-08-05T15:20:09.754Z,732.77
2022-08-05T15:22:45.475Z,716.93
2022-08-05T15:25:14.904Z,652.83
2022-08-05T15:27:52.498Z,607.80
2022-08-05T15:30:22.733Z,598.40
2022-08-05T15:32:50.700Z,533.70
2022-08-05T15:35:18.710Z,595.90
2022-08-05T15:38:33.475Z,581.33
2022-08-05T15:41:03.773Z,626.47
2022-08-05T15:43:27.113Z,557.93
2022-08-05T15:46:00.160Z,574.00
2022-08-05T15:48:29.969Z,560.43
2022-08-05T15:50:58.221Z,588.93
2022-08-05T15:53:38.041Z,567.87
2022-08-05T15:56:19.857Z,554.23
2022-08-05T15:58:48.581Z,539.53
2022-08-05T16:01:18.046Z,596.70
2022-08-05T16:03:48.506Z,601.30
2022-08-05T16:06:19.656Z,588.67
2022-08-05T16:08:51.259Z,586.70
2022-08-05T16:11:40.143Z,573.30
2022-08-05T16:14:17.255Z,564.50
2022-08-05T16:16:46.321Z,628.00
2022-08-05T16:19:25.887Z,565.23
2022-08-05T16:22:03.130Z,573.67
2022-08-05T16:24:41.279Z,551.60
2022-08-05T16:27:46.990Z,591.47
2022-08-05T16:30:25.875Z,626.03
2022-08-05T16:32:55.015Z,526.43
2022-08-05T16:35:27.839Z,582.87
2022-08-05T16:38:03.340Z,616.97
2022-08-05T16:40:47.910Z,612.43
2022-08-05T16:43:24.376Z,621.33
2022-08-05T16:46:03.761Z,571.63
2022-08-05T16:48:36.446Z,598.13
2022-08-05T16:51:09.226Z,593.07
2022-08-05T16:54:06.330Z,626.07
2022-08-05T16:56:26.234Z,593.57
2022-08-05T16:58:55.672Z,588.03
2022-08-05T17:01:24.330Z,560.60
2022-08-05T17:03:52.813Z,639.57
2022-08-05T17:06:21.022Z,627.80
2022-08-05T17:08:54.363Z,660.50
2022-08-05T17:11:25.503Z,678.87
2022-08-05T17:14:05.854Z,695.60
2022-08-05T17:16:37.085Z,698.07
2022-08-05T17:19:07.001Z,648.10
2022-08-05T17:21:36.933Z,639.33
2022-08-05T17:24:18.458Z,725.23
2022-08-05T17:26:55.438Z,639.40
2022-08-05T17:29:33.988Z,677.30
2022-08-05T17:32:11.637Z,675.20
2022-08-05T17:34:54.663Z,650.20
2022-08-05T17:37:39.494Z,675.23
2022-08-05T17:40:12.745Z,733.80
2022-08-05T17:42:50.564Z,698.33
2022-08-05T17:45:22.618Z,685.40
2022-08-05T17:47:54.635Z,712.93
2022-08-05T17:50:28.178Z,716.13
2022-08-05T17:52:59.856Z,720.23
2022-08-05T17:55:38.350Z,718.70
2022-08-05T17:58:13.179Z,758.47
2022-08-05T18:00:47.698Z,722.20
2022-08-05T18:03:48.517Z,747.13
2022-08-05T18:06:11.715Z,715.77
2022-08-05T18:08:44.528Z,694.23
2022-08-05T18:11:24.182Z,829.87
2022-08-05T18:14:03.429Z,737.30
2022-08-05T18:16:33.707Z,745.93
2022-08-05T18:19:01.655Z,731.60
2022-08-05T18:22:06.978Z,765.63
2022-08-05T18:24:17.694Z,814.67
2022-08-05T18:26:45.594Z,833.00
2022-08-05T18:29:16.712Z,826.43
2022-08-05T18:31:46.356Z,805.53
2022-08-05T18:34:17.726Z,829.93
2022-08-05T18:36:49.704Z,794.03
2022-08-05T18:39:42.528Z,820.23
2022-08-05T18:42:10.452Z,803.07
2022-08-05T18:44:49.408Z,829.03
2022-08-05T18:47:26.838Z,838.87
2022-08-05T18:50:13.324Z,809.03
2022-08-05T18:52:51.127Z,831.60
2022-08-05T18:55:21.516Z,808.50
2022-08-05T18:57:54.068Z,776.13
2022-08-05T19:00:29.519Z,783.03
2022-08-05T19:03:03.296Z,782.00
2022-08-05T19:06:11.531Z,823.97
2022-08-05T19:08:21.676Z,809.20
2022-08-05T19:10:50.380Z,783.70
2022-08-05T19:13:19.728Z,790.27
2022-08-05T19:15:57.084Z,805.33
2022-08-05T19:18:28.627Z,795.63
2022-08-05T19:20:57.017Z,776.23
2022-08-05T19:24:07.568Z,815.90
2022-08-05T19:26:13.855Z,766.40
2022-08-05T19:28:43.206Z,779.27
2022-08-05T19:31:13.345Z,790.73
2022-08-05T19:33:48.609Z,774.47
2022-08-05T19:36:25.235Z,795.93
2022-08-05T19:38:55.165Z,803.97
2022-08-05T19:41:34.723Z,766.73
2022-08-05T19:44:16.657Z,810.60
2022-08-05T19:46:46.401Z,808.40
2022-08-05T19:49:17.072Z,816.27
2022-08-05T19:52:05.555Z,788.50
2022-08-05T19:54:35.126Z,796.87
2022-08-05T19:57:09.096Z,798.93
2022-08-05T19:59:55.411Z,806.90
2022-08-05T20:02:27.422Z,824.53
2022-08-05T20:04:58.931Z,811.70
2022-08-05T20:07:46.988Z,807.27
2022-08-05T20:10:15.743Z,808.77
2022-08-05T20:12:48.339Z,845.83
2022-08-05T20:15:23.038Z,781.93
2022-08-05T20:18:10.709Z,830.33
2022-08-05T20:20:56.087Z,820.13
2022-08-05T20:23:40.122Z,828.30
2022-08-05T20:26:15.953Z,801.23
2022-08-05T20:28:45.301Z,849.17
2022-08-05T20:31:13.384Z,836.30
2022-08-05T20:33:42.420Z,846.73
2022-08-05T20:36:12.143Z,801.97
2022-08-05T20:38:54.546Z,806.40
2022-08-05T20:41:43.209Z,818.50
2022-08-05T20:44:18.759Z,830.67
2022-08-05T20:46:57.691Z,828.40
2022-08-05T20:49:26.105Z,855.03
2022-08-05T20:51:57.673Z,840.87
2022-08-05T20:54:59.738Z,851.03
2022-08-05T20:57:15.105Z,850.67
2022-08-05T21:00:19.729Z,826.33
2022-08-05T21:02:55.354Z,831.80
2022-08-05T21:05:24.981Z,850.30
2022-08-05T21:07:54.295Z,888.53
2022-08-05T21:10:24.040Z,874.77
2022-08-05T21:12:58.014Z,870.70
2022-08-05T21:15:37.254Z,858.77
2022-08-05T21:18:05.588Z,895.57
2022-08-05T21:20:33.793Z,897.57
2022-08-05T21:23:03.669Z,887.13
2022-08-05T21:25:33.736Z,963.63
2022-08-05T21:28:03.350Z,925.67
2022-08-05T21:30:32.198Z,946.10
2022-08-05T21:33:01.841Z,935.37
2022-08-05T21:35:55.617Z,956.50
2022-08-05T21:38:20.391Z,950.80
2022-08-05T21:40:48.334Z,973.23
2022-08-05T21:43:24.522Z,949.50
2022-08-05T21:45:57.899Z,999.90
2022-08-05T21:48:28.715Z,999.90
2022-08-05T21:50:57.170Z,999.90
2022-08-05T21:53:27.707Z,999.90
2022-08-05T21:56:16.437Z,999.90
2022-08-05T21:58:57.223Z,999.90
2022-08-05T22:01:26.657Z,999.90
2022-08-05T22:03:55.228Z,999.90
2022-08-05T22:06:35.110Z,999.90
2022-08-05T22:09:14.706Z,999.90
2022-08-05T22:11:43.572Z,999.90
2022-08-05T22:14:34.642Z,999.90
2022-08-05T22:17:06.981Z,999.90
2022-08-05T22:20:03.414Z,999.90
2022-08-05T22:22:27.019Z,999.90
2022-08-05T22:25:21.170Z,999.90
2022-08-05T22:28:08.326Z,999.90
2022-08-05T22:30:55.612Z,999.90
2022-08-05T22:33:57.913Z,999.90
2022-08-05T22:36:14.610Z,999.90
2022-08-05T22:38:43.950Z,999.90
2022-08-05T22:42:04.371Z,999.90
2022-08-05T22:44:07.694Z,999.90
2022-08-05T22:46:40.149Z,999.90
2022-08-05T22:49:12.174Z,999.90
2022-08-05T22:52:06.673Z,999.90
2022-08-05T22:54:35.916Z,999.90
2022-08-05T22:57:05.951Z,999.90
2022-08-05T22:59:45.489Z,999.90
2022-08-05T23:02:18.374Z,999.90
2022-08-05T23:04:56.642Z,999.90
2022-08-05T23:07:24.527Z,999.90
2022-08-05T23:10:01.219Z,999.90
2022-08-05T23:12:32.750Z,999.90
2022-08-05T23:15:03.497Z,999.90
2022-08-05T23:17:34.300Z,999.90
2022-08-05T23:20:16.604Z,999.90
2022-08-05T23:22:47.329Z,999.90
2022-08-05T23:25:53.470Z,999.90
2022-08-05T23:28:07.920Z,999.90
2022-08-05T23:30:40.279Z,999.90
2022-08-05T23:33:16.317Z,999.90
2022-08-05T23:35:50.141Z,999.90
2022-08-05T23:38:18.260Z,999.90
2022-08-05T23:40:49.786Z,999.90
2022-08-05T23:43:25.031Z,999.90
2022-08-05T23:46:20.336Z,999.90
2022-08-05T23:49:00.658Z,999.90
2022-08-05T23:51:54.256Z,999.90
2022-08-05T23:54:25.304Z,999.90
2022-08-05T23:56:55.108Z,999.90
2022-08-05T23:59:27.649Z,999.90
